Myrtle Beach, SC

4:40 PM EDT on August 30, 2015 (GMT -0400)
Green Lake | | Change Station
CLOSE
Current Station
Personal Weather Station
Location: Myrtle Beach, SC
Elevation: 39 ft
Nearby Weather Stations

Elev 39 ft 33.78 °N, 78.78 °W | Updated 13 seconds ago

Overcast
Overcast
77.5 °F
Feels Like 79 °F
N
0.0
Wind Variable Wind from NNE
Gusts 0.0 mph

Today
High -- | Low -- °F
--% Chance of Precip.
Yesterday
High -- | Low -- °F
Precip. -- in
6:47 AM 7:43 PM
Full, 98% visible
Pressure 30.13 in
Visibility 10.0 miles
Clouds Scattered Clouds 11000 ft
Heat Index 79 °F
Dew Point 74 °F
Humidity 89%
Rainfall 0.02 in
Snow Depth Not available.
UV 0.5 out of 12
Pollen 4.90 out of 12
Air Quality Not available.
Flu Activity Not available.
METAR KCRE 301953Z 13006KT 10SM -RA SCT110 26/22 A3013 RMK AO1 RAB17 SLP203 P0000 T02610222
Pressure 30.13 in
Visibility 10.0 miles
Clouds Scattered Clouds 11000 ft
Heat Index 79 °F
Dew Point 74 °F
Humidity 89%
Rainfall 0.02 in
Snow Depth Not available.
UV 0.5 out of 12
Pollen 4.90 out of 12
Air Quality Not available.
Flu Activity Not available.
METAR KCRE 301953Z 13006KT 10SM -RA SCT110 26/22 A3013 RMK AO1 RAB17 SLP203 P0000 T02610222

10-Day Weather Forecast

×

Almanac

Astronomy

Aug. 30, 2015 Rise Set
Actual Time
Civil Twilight
Nautical Twilight
Astronomical Twilight
Moon
Length of Visible Light
Length of Day
Tomorrow will be .
, % of the Moon is Illuminated

Today's Extremes

State Highs State Lows

Community

WunderPhotos

Upload Photos

1,851,057 photos uploaded!

WunderBlogs® & News

Nearby

Air Quality

  Air Quality AQ Index Pollutant
Not available.

Snow Depth

Station Depth Elevation

Earthquake Activity

City Distance Mag. Time & Date
Minimum magnitude displayed is 2.5.

Coastal Water Temperatures

Place Temperature

Stations

Nearby Weather Stations

Station Location Temp. Windchill Dew Point Humidity Wind Precip. Elev Updated Type